Time;durP1;ratioP1;P1;durP2;ratioP2;P2;SDS_P1;SDS_P2;PMS_P1;PMS_P2;Temp;Humidity;BMP_temperature;BMP_pressure;BME280_temperature;BME280_humidity;BME280_pressure;Samples;Min_cycle;Max_cycle;Signal;HPM_P1;HPM_P2
2021/12/12 00:00:46;;;;;;;65.22;30.10;;;4.00;99.90;;;;;;6195027;23;20255;-86
2021/12/12 00:03:21;;;;;;;57.25;28.05;;;3.90;99.90;;;;;;6169916;23;20009;-86
2021/12/12 00:05:52;;;;;;;57.33;30.08;;;3.90;99.90;;;;;;6170360;23;20020;-85
2021/12/12 00:08:23;;;;;;;63.30;30.05;;;3.90;99.90;;;;;;6145552;23;20036;-85
2021/12/12 00:10:58;;;;;;;60.75;29.42;;;5.00;99.90;;;;;;6170209;23;20135;-85
2021/12/12 00:13:33;;;;;;;68.05;31.70;;;4.00;99.90;;;;;;6170209;23;20008;-86
2021/12/12 00:15:59;;;;;;;65.00;31.95;;;4.00;99.90;;;;;;6170150;23;20001;-86
2021/12/12 00:18:30;;;;;;;67.20;30.52;;;4.00;99.90;;;;;;6169688;23;20004;-87
2021/12/12 00:20:58;;;;;;;63.60;30.23;;;3.90;99.90;;;;;;6170141;23;19997;-86
2021/12/12 00:23:24;;;;;;;65.20;32.95;;;3.90;99.90;;;;;;6170235;23;20005;-86
2021/12/12 00:25:52;;;;;;;65.18;31.45;;;4.30;99.90;;;;;;6121072;23;20012;-86
2021/12/12 00:28:21;;;;;;;67.78;31.80;;;4.00;99.90;;;;;;6145574;23;20005;-86
2021/12/12 00:30:59;;;;;;;62.17;29.95;;;4.60;99.90;;;;;;6149603;23;20086;-85
2021/12/12 00:33:46;;;;;;;65.35;31.48;;;4.00;99.90;;;;;;6191413;23;20060;-85
2021/12/12 00:36:16;;;;;;;66.90;31.10;;;5.10;99.90;;;;;;6195107;23;20105;-86
2021/12/12 00:38:44;;;;;;;64.45;31.20;;;4.00;99.90;;;;;;6170282;23;20015;-85
2021/12/12 00:41:11;;;;;;;65.05;31.50;;;4.00;99.90;;;;;;6194759;23;20235;-86
2021/12/12 00:43:56;;;;;;;;;;;;;;;;;;;;;
2021/12/12 00:46:24;;;;;;;67.35;29.98;;;4.00;99.90;;;;;;6219849;23;20005;-86
2021/12/12 00:48:53;;;;;;;63.55;31.23;;;4.00;99.90;;;;;;6169980;23;19997;-86
2021/12/12 00:51:37;;;;;;;67.75;31.40;;;4.00;99.90;;;;;;6169548;23;20076;-86
2021/12/12 00:54:08;;;;;;;69.28;32.38;;;4.00;99.90;;;;;;6219805;23;20009;-86
2021/12/12 00:56:34;;;;;;;61.38;30.95;;;4.00;99.90;;;;;;6169713;23;20050;-87
2021/12/12 00:59:01;;;;;;;59.13;30.73;;;4.00;99.90;;;;;;6170160;23;20052;-86
2021/12/12 01:01:31;;;;;;;64.07;30.70;;;4.00;99.90;;;;;;6194326;23;20012;-85
2021/12/12 01:04:13;;;;;;;66.55;30.38;;;4.90;99.90;;;;;;6144529;23;20113;-86
2021/12/12 01:06:46;;;;;;;55.10;30.25;;;4.70;99.90;;;;;;6146453;23;20263;-86
2021/12/12 01:09:21;;;;;;;64.30;31.27;;;4.00;99.90;;;;;;6145533;23;20004;-85
2021/12/12 01:11:59;;;;;;;64.30;32.58;;;4.10;99.90;;;;;;6143944;23;20260;-86
2021/12/12 01:14:41;;;;;;;59.63;30.90;;;3.80;99.90;;;;;;6169368;23;20001;-85
2021/12/12 01:17:22;;;;;;;61.70;30.65;;;4.10;99.90;;;;;;6145016;23;20001;-85
2021/12/12 01:19:56;;;;;;;60.63;30.42;;;4.10;99.90;;;;;;6145114;23;20003;-86
2021/12/12 01:22:31;;;;;;;61.20;30.88;;;4.10;99.90;;;;;;6169434;23;20040;-87
2021/12/12 01:25:00;;;;;;;62.88;30.73;;;5.00;99.90;;;;;;6144881;23;20020;-86
2021/12/12 01:27:27;;;;;;;67.72;31.23;;;4.00;99.90;;;;;;6145176;23;20005;-85
2021/12/12 01:29:53;;;;;;;60.53;30.00;;;4.10;99.90;;;;;;6145248;23;20031;-86
2021/12/12 01:32:27;;;;;;;65.18;32.08;;;4.40;99.90;;;;;;6120165;23;20005;-87
2021/12/12 01:34:54;;;;;;;56.85;30.08;;;4.10;99.90;;;;;;6169832;23;20001;-87
2021/12/12 01:40:01;;;;;;;64.38;31.75;;;4.10;99.90;;;;;;6168913;23;20005;-88
2021/12/12 01:43:14;;;;;;;61.50;30.17;;;4.10;99.90;;;;;;6144145;23;20214;-86
2021/12/12 01:46:09;;;;;;;59.42;30.10;;;4.10;99.90;;;;;;6150093;23;20011;-87
2021/12/12 01:48:43;;;;;;;58.83;29.67;;;4.10;99.90;;;;;;6148481;23;20001;-86
2021/12/12 01:51:19;;;;;;;53.58;28.25;;;4.10;99.90;;;;;;6144520;23;20008;-86
2021/12/12 01:53:50;;;;;;;60.17;30.10;;;4.20;99.90;;;;;;6122791;23;19997;-85
2021/12/12 01:56:35;;;;;;;63.45;29.63;;;4.40;99.90;;;;;;6144119;23;20008;-86
2021/12/12 01:59:05;;;;;;;53.55;29.08;;;4.20;99.90;;;;;;6144072;23;19993;-85
2021/12/12 02:04:38;;;;;;;59.58;29.70;;;4.20;99.90;;;;;;6169478;23;20024;-85
2021/12/12 02:07:08;;;;;;;59.35;29.90;;;5.00;99.90;;;;;;6168853;23;20019;-85
2021/12/12 02:09:35;;;;;;;59.13;29.42;;;4.20;99.90;;;;;;6169021;23;20008;-85
2021/12/12 02:12:01;;;;;;;58.03;29.80;;;5.40;99.90;;;;;;6169598;23;20056;-86
2021/12/12 02:14:31;;;;;;;58.33;29.17;;;4.20;99.90;;;;;;6169208;23;20058;-86
2021/12/12 02:17:01;;;;;;;59.42;28.73;;;4.10;99.90;;;;;;6169151;23;20007;-86
2021/12/12 02:19:36;;;;;;;62.33;30.27;;;4.20;99.90;;;;;;6145041;23;20076;-85
2021/12/12 02:22:31;;;;;;;54.10;28.30;;;4.20;99.90;;;;;;6144425;23;20016;-86
2021/12/12 02:36:01;;;;;;;56.15;28.45;;;4.20;99.90;;;;;;6148292;23;20251;-86
2021/12/12 02:38:30;;;;;;;68.50;28.85;;;4.20;99.90;;;;;;6119984;23;19997;-86
2021/12/12 02:41:05;;;;;;;51.95;27.27;;;4.30;99.90;;;;;;6144277;23;20032;-86
2021/12/12 02:43:35;;;;;;;57.85;26.75;;;4.30;99.90;;;;;;6193883;23;20240;-86
2021/12/12 02:46:01;;;;;;;60.70;28.08;;;4.30;99.90;;;;;;6144799;23;20147;-85
2021/12/12 02:48:31;;;;;;;54.58;26.85;;;4.80;99.90;;;;;;6144257;23;20003;-86
2021/12/12 02:51:04;;;;;;;51.67;26.50;;;4.30;99.90;;;;;;6168745;23;20043;-86
2021/12/12 02:53:45;;;;;;;49.00;26.80;;;4.10;99.90;;;;;;6144406;23;20252;-85
2021/12/12 02:56:17;;;;;;;55.67;27.02;;;4.40;99.90;;;;;;6168907;23;20052;-85
2021/12/12 02:58:45;;;;;;;59.53;27.48;;;6.00;99.90;;;;;;6169258;23;20001;-84
2021/12/12 03:01:17;;;;;;;50.58;25.15;;;5.00;99.90;;;;;;6144219;23;20008;-85
2021/12/12 03:03:45;;;;;;;49.35;24.13;;;4.30;99.90;;;;;;6168661;23;20263;-85
2021/12/12 03:06:18;;;;;;;54.20;25.85;;;4.60;99.90;;;;;;6144436;23;20266;-86
2021/12/12 03:08:46;;;;;;;52.35;25.75;;;4.40;99.90;;;;;;6144472;23;20001;-86
2021/12/12 03:11:12;;;;;;;45.78;25.00;;;4.40;99.90;;;;;;6143924;23;20013;-85
2021/12/12 03:13:39;;;;;;;50.22;25.25;;;4.30;99.90;;;;;;6144445;23;20045;-85
2021/12/12 03:16:07;;;;;;;43.00;24.20;;;4.30;99.90;;;;;;6168727;23;20001;-86
2021/12/12 03:18:39;;;;;;;43.22;23.25;;;4.30;99.90;;;;;;6144637;23;20029;-86
2021/12/12 03:21:19;;;;;;;48.38;25.17;;;4.40;99.90;;;;;;6168745;23;20004;-86
2021/12/12 03:23:56;;;;;;;44.00;23.02;;;4.40;99.90;;;;;;6168815;23;20008;-85
2021/12/12 03:26:26;;;;;;;47.80;25.20;;;4.40;99.90;;;;;;6144660;23;20012;-86
2021/12/12 03:28:58;;;;;;;46.25;24.77;;;4.40;99.90;;;;;;6144078;23;20048;-86
2021/12/12 03:31:38;;;;;;;53.33;24.10;;;4.40;99.90;;;;;;6144126;23;20347;-85
2021/12/12 03:35:06;;;;;;;46.33;24.65;;;4.40;99.90;;;;;;6144622;23;20009;-87
2021/12/12 03:41:32;;;;;;;;;;;;;;;;;;;;;
2021/12/12 03:44:27;;;;;;;43.95;21.50;;;4.50;99.90;;;;;;6168288;23;20296;-86
2021/12/12 03:55:09;;;;;;;;;;;;;;;;;;;;;
2021/12/12 03:59:08;;;;;;;41.03;20.27;;;4.60;99.90;;;;;;5988769;24;20035;-87
2021/12/12 04:02:27;;;;;;;40.75;20.73;;;4.60;99.90;;;;;;5939764;24;20233;-86
2021/12/12 04:05:07;;;;;;;39.72;20.08;;;4.60;99.90;;;;;;5911558;24;20017;-85
2021/12/12 04:09:00;;;;;;;37.33;19.30;;;4.60;99.90;;;;;;5848937;24;20014;-87
2021/12/12 04:12:25;;;;;;;;;;;;;;;;;;;;;
2021/12/12 04:18:46;;;;;;;36.42;18.33;;;4.70;99.90;;;;;;5885300;24;20017;-85
2021/12/12 04:25:48;;;;;;;;;;;;;;;;;;;;;
2021/12/12 04:29:07;;;;;;;37.47;17.02;;;3.40;99.90;;;;;;5869128;24;20009;-85
2021/12/12 04:31:34;;;;;;;30.67;16.00;;;4.90;99.90;;;;;;5920306;23;20020;-84
2021/12/12 04:34:01;;;;;;;31.40;15.38;;;4.90;99.90;;;;;;6023009;23;20274;-86
2021/12/12 04:36:30;;;;;;;31.58;15.65;;;4.90;99.90;;;;;;6087169;23;20005;-86
2021/12/12 04:39:08;;;;;;;26.98;14.45;;;4.90;99.90;;;;;;6169741;23;20241;-86
2021/12/12 04:41:34;;;;;;;25.67;14.10;;;5.00;99.90;;;;;;6169979;23;20095;-86
2021/12/12 04:44:09;;;;;;;29.30;13.65;;;6.10;99.90;;;;;;6145465;23;20005;-86
2021/12/12 04:52:43;;;;;;;23.92;14.15;;;6.40;99.90;;;;;;6195973;23;20069;-86
2021/12/12 04:55:34;;;;;;;26.33;13.40;;;5.10;99.90;;;;;;6144290;23;20001;-86
2021/12/12 04:58:30;;;;;;;21.10;11.85;;;5.10;99.90;;;;;;6169647;23;20060;-85
2021/12/12 05:01:31;;;;;;;23.23;12.40;;;5.10;99.90;;;;;;6139277;23;20000;-86
2021/12/12 05:04:09;;;;;;;22.85;12.90;;;5.10;99.90;;;;;;6139200;23;20016;-87
2021/12/12 05:06:57;;;;;;;24.67;12.38;;;5.10;99.90;;;;;;6144829;23;20009;-86
2021/12/12 05:09:28;;;;;;;23.95;13.00;;;5.20;99.90;;;;;;6170012;23;20001;-86
2021/12/12 05:12:14;;;;;;;23.52;11.82;;;5.20;99.90;;;;;;6169935;23;20060;-87
2021/12/12 05:14:46;;;;;;;21.98;12.50;;;5.20;99.90;;;;;;6145705;23;20175;-86
2021/12/12 05:17:28;;;;;;;22.95;12.63;;;5.10;99.90;;;;;;6144953;23;20240;-86
2021/12/12 05:19:59;;;;;;;19.73;11.25;;;5.20;99.90;;;;;;6145353;23;20029;-86
2021/12/12 05:22:44;;;;;;;21.23;11.05;;;5.20;99.90;;;;;;6145021;23;20061;-87
2021/12/12 05:25:16;;;;;;;19.10;10.90;;;5.20;99.90;;;;;;6169437;23;20262;-86
2021/12/12 05:27:47;;;;;;;19.98;10.75;;;5.20;99.90;;;;;;6144473;23;20056;-88
2021/12/12 05:30:23;;;;;;;18.45;11.15;;;5.20;99.90;;;;;;6147825;23;20001;-86
2021/12/12 05:32:49;;;;;;;20.08;11.02;;;5.20;99.90;;;;;;6168863;23;20216;-86
2021/12/12 05:35:18;;;;;;;19.50;11.35;;;3.00;99.90;;;;;;6120207;23;20028;-86
2021/12/12 05:37:53;;;;;;;18.98;10.90;;;5.20;99.90;;;;;;6169355;23;20001;-85
2021/12/12 05:40:21;;;;;;;19.88;10.45;;;5.20;99.90;;;;;;6169508;23;20001;-85
2021/12/12 05:43:03;;;;;;;15.52;9.93;;;5.20;99.90;;;;;;6145453;23;20005;-87
2021/12/12 05:45:31;;;;;;;17.35;10.20;;;5.20;99.90;;;;;;6168912;23;20147;-87
2021/12/12 05:47:57;;;;;;;17.23;9.20;;;2.40;99.90;;;;;;6144791;23;20008;-87
2021/12/12 05:50:34;;;;;;;15.63;10.05;;;5.20;99.90;;;;;;6120924;23;20147;-86
2021/12/12 05:53:03;;;;;;;16.60;10.13;;;5.30;99.90;;;;;;6146587;23;20291;-87
2021/12/12 05:55:31;;;;;;;17.98;10.60;;;;;;;;;;6144806;23;19997;-86
2021/12/12 05:58:31;;;;;;;17.15;10.20;;;5.30;99.90;;;;;;6125793;23;20009;-85
2021/12/12 06:01:04;;;;;;;18.48;10.98;;;5.30;99.90;;;;;;6085661;23;20009;-86
2021/12/12 06:03:44;;;;;;;17.13;10.40;;;5.30;99.90;;;;;;6084370;23;20073;-87
2021/12/12 06:06:14;;;;;;;19.38;10.65;;;5.30;99.90;;;;;;6108806;23;20020;-86
2021/12/12 06:08:48;;;;;;;16.45;9.95;;;5.30;99.90;;;;;;6109113;23;20006;-84
2021/12/12 06:11:16;;;;;;;16.75;10.07;;;5.30;99.90;;;;;;6084812;23;20269;-86
2021/12/12 06:13:43;;;;;;;19.00;10.82;;;5.40;99.90;;;;;;6085164;23;20021;-85
2021/12/12 06:16:20;;;;;;;19.15;10.25;;;5.40;99.90;;;;;;6138136;23;20001;-86
2021/12/12 06:19:04;;;;;;;18.92;10.88;;;5.40;99.90;;;;;;6138479;23;20009;-86
2021/12/12 06:21:56;;;;;;;16.08;10.20;;;5.40;99.90;;;;;;6137270;23;20002;-86
2021/12/12 06:24:30;;;;;;;18.00;10.07;;;5.40;99.90;;;;;;6138007;23;20009;-86
2021/12/12 06:27:11;;;;;;;17.88;10.30;;;5.50;99.90;;;;;;6161845;23;20012;-86
2021/12/12 06:29:37;;;;;;;17.50;10.82;;;5.50;99.90;;;;;;6142213;23;20013;-85
2021/12/12 06:32:15;;;;;;;16.52;10.20;;;5.50;99.90;;;;;;6120026;23;20005;-87
2021/12/12 06:34:42;;;;;;;20.63;10.20;;;5.50;99.90;;;;;;6169199;23;20205;-85
2021/12/12 06:37:09;;;;;;;18.55;10.10;;;5.40;99.90;;;;;;6144003;23;19997;-86
2021/12/12 06:39:58;;;;;;;16.02;10.07;;;5.50;99.90;;;;;;6143634;23;20001;-90
2021/12/12 06:42:25;;;;;;;15.07;9.13;;;5.50;99.90;;;;;;6155937;23;20151;-86
2021/12/12 06:44:51;;;;;;;16.50;9.82;;;5.50;99.90;;;;;;6144492;23;20027;-86
2021/12/12 06:47:20;;;;;;;16.42;9.75;;;3.50;99.90;;;;;;6121295;23;20005;-85
2021/12/12 06:49:46;;;;;;;16.95;9.45;;;5.50;99.90;;;;;;6120064;23;20263;-86
2021/12/12 06:52:13;;;;;;;15.90;9.20;;;5.60;99.90;;;;;;6144446;23;20088;-87
2021/12/12 06:55:08;;;;;;;16.63;9.48;;;5.60;99.90;;;;;;6168792;23;20008;-86
2021/12/12 06:57:41;;;;;;;14.30;8.50;;;5.60;99.90;;;;;;6144388;23;20001;-86
2021/12/12 07:00:27;;;;;;;16.73;8.75;;;5.60;99.90;;;;;;6170969;23;20001;-86
2021/12/12 07:02:56;;;;;;;15.35;8.85;;;;;;;;;;6144805;23;20100;-86
2021/12/12 07:05:31;;;;;;;15.80;9.38;;;5.60;99.90;;;;;;6169029;23;20064;-85
2021/12/12 07:08:19;;;;;;;14.80;8.60;;;5.70;99.90;;;;;;6169265;23;20008;-88
2021/12/12 07:10:49;;;;;;;16.40;9.45;;;5.70;99.90;;;;;;6144535;23;20160;-86
2021/12/12 07:13:16;;;;;;;18.20;10.45;;;5.70;99.90;;;;;;6168652;23;20099;-86
2021/12/12 07:16:13;;;;;;;16.77;9.60;;;5.70;99.90;;;;;;6144411;23;20085;-85
2021/12/12 07:18:39;;;;;;;16.33;9.50;;;5.70;99.90;;;;;;6122064;23;20064;-85
2021/12/12 07:21:13;;;;;;;16.33;9.90;;;5.70;99.90;;;;;;6144863;23;20008;-86
2021/12/12 07:23:57;;;;;;;16.50;9.90;;;5.80;99.90;;;;;;6146756;23;20013;-87
2021/12/12 07:26:33;;;;;;;16.35;10.15;;;5.70;99.90;;;;;;6149913;23;20028;-86
2021/12/12 07:29:09;;;;;;;18.38;10.15;;;5.70;99.90;;;;;;6194945;23;20052;-86
2021/12/12 07:31:44;;;;;;;16.65;9.90;;;;;;;;;;6145683;23;20056;-86
2021/12/12 07:34:13;;;;;;;17.48;10.00;;;;;;;;;;6120778;23;20008;-86
2021/12/12 07:36:59;;;;;;;16.17;9.93;;;5.80;99.90;;;;;;6196777;23;20008;-86
2021/12/12 07:39:30;;;;;;;19.35;10.50;;;5.80;99.90;;;;;;6146578;23;20009;-86
2021/12/12 07:42:04;;;;;;;18.20;10.73;;;5.80;99.90;;;;;;6146466;23;20005;-86
2021/12/12 07:44:33;;;;;;;17.35;10.25;;;3.60;99.90;;;;;;6146432;23;20240;-86
2021/12/12 07:46:59;;;;;;;18.13;10.77;;;5.90;99.90;;;;;;6169536;23;20005;-87
2021/12/12 07:49:36;;;;;;;19.10;10.85;;;5.90;99.90;;;;;;6146131;23;20005;-85
2021/12/12 07:52:42;;;;;;;19.33;11.40;;;5.90;99.90;;;;;;6169754;23;20012;-87
2021/12/12 07:55:18;;;;;;;19.98;11.35;;;5.90;99.90;;;;;;6143953;23;20297;-86
2021/12/12 07:57:44;;;;;;;19.13;10.98;;;;;;;;;;6170036;23;20004;-87
2021/12/12 08:00:23;;;;;;;18.02;10.75;;;6.00;99.90;;;;;;6145186;23;20005;-85
2021/12/12 08:02:51;;;;;;;17.13;10.50;;;5.90;99.90;;;;;;6145164;23;20331;-86
2021/12/12 08:05:18;;;;;;;19.65;10.95;;;6.00;99.90;;;;;;6145618;23;20013;-86
2021/12/12 08:08:07;;;;;;;19.60;11.65;;;7.50;99.90;;;;;;6145868;23;20314;-86
2021/12/12 08:10:38;;;;;;;19.75;11.52;;;;;;;;;;6170382;23;20001;-85
2021/12/12 08:13:14;;;;;;;19.98;11.40;;;6.00;99.90;;;;;;6145980;23;20115;-86
2021/12/12 08:15:49;;;;;;;18.90;10.93;;;6.00;99.90;;;;;;6148131;23;19997;-85
2021/12/12 08:18:21;;;;;;;20.05;11.57;;;;;;;;;;6145807;23;20184;-84
2021/12/12 08:20:52;;;;;;;17.20;10.32;;;6.20;99.90;;;;;;6146250;23;20229;-86
2021/12/12 08:23:19;;;;;;;18.88;11.02;;;6.20;99.90;;;;;;6170350;23;20019;-85
2021/12/12 08:25:56;;;;;;;19.90;10.77;;;6.20;99.90;;;;;;6145460;23;20036;-85
2021/12/12 08:28:22;;;;;;;21.13;11.65;;;6.30;99.90;;;;;;6145673;23;20064;-85
2021/12/12 08:30:50;;;;;;;17.70;10.90;;;6.30;99.90;;;;;;6170270;23;20005;-86
2021/12/12 08:33:36;;;;;;;21.10;11.77;;;6.30;99.90;;;;;;6121895;23;20308;-88
2021/12/12 08:36:16;;;;;;;21.25;11.63;;;6.30;99.90;;;;;;6169027;23;20001;-85
2021/12/12 08:38:54;;;;;;;19.33;10.70;;;6.40;99.90;;;;;;6168829;23;20001;-86
2021/12/12 08:41:20;;;;;;;21.40;11.25;;;6.40;99.90;;;;;;6144753;23;20001;-86
2021/12/12 08:43:46;;;;;;;22.92;12.70;;;6.40;99.90;;;;;;6120340;23;20008;-85
2021/12/12 08:46:31;;;;;;;22.55;12.13;;;6.40;99.90;;;;;;6169323;23;20007;-86
2021/12/12 08:49:01;;;;;;;23.73;12.63;;;;;;;;;;6169813;23;20001;-85
2021/12/12 08:51:37;;;;;;;22.65;12.68;;;6.50;99.90;;;;;;6144370;23;20008;-86
2021/12/12 08:54:22;;;;;;;24.17;12.90;;;6.50;99.90;;;;;;6144486;23;20001;-85
2021/12/12 08:56:51;;;;;;;24.65;12.65;;;6.60;99.90;;;;;;6169884;23;20016;-87
2021/12/12 08:59:23;;;;;;;25.77;12.85;;;6.50;99.90;;;;;;6146174;23;20009;-85
2021/12/12 09:01:51;;;;;;;25.88;13.02;;;6.60;99.90;;;;;;6169459;23;20278;-86
2021/12/12 09:04:17;;;;;;;24.98;13.60;;;6.60;99.90;;;;;;6168716;23;20057;-85
2021/12/12 09:07:14;;;;;;;24.23;12.85;;;6.60;99.90;;;;;;6169894;23;20028;-87
2021/12/12 09:09:45;;;;;;;25.20;12.82;;;6.70;99.90;;;;;;6145389;23;20047;-85
2021/12/12 09:12:14;;;;;;;26.95;13.43;;;6.70;99.90;;;;;;6144509;23;20262;-85
2021/12/12 09:14:46;;;;;;;26.70;13.63;;;6.70;99.90;;;;;;6144741;23;20233;-87
2021/12/12 09:17:39;;;;;;;28.40;13.85;;;6.80;99.90;;;;;;6169683;23;20001;-85
2021/12/12 09:20:21;;;;;;;25.70;13.00;;;6.80;99.90;;;;;;6144050;23;20008;-85
2021/12/12 09:23:14;;;;;;;29.48;14.40;;;6.80;99.90;;;;;;6141863;23;20004;-86
2021/12/12 09:25:50;;;;;;;28.00;14.27;;;6.70;99.90;;;;;;6169315;23;20187;-85
2021/12/12 09:28:31;;;;;;;31.23;14.27;;;6.70;99.90;;;;;;6168647;23;20053;-86
2021/12/12 09:31:02;;;;;;;29.75;14.52;;;6.80;99.90;;;;;;6196042;23;20079;-86
2021/12/12 09:33:43;;;;;;;32.25;15.45;;;6.90;99.90;;;;;;6168957;23;20005;-86
2021/12/12 09:36:43;;;;;;;30.95;14.77;;;6.80;99.90;;;;;;6173008;23;20051;-86
2021/12/12 09:39:33;;;;;;;34.38;15.68;;;7.00;99.90;;;;;;6133559;23;20000;-85
2021/12/12 09:42:04;;;;;;;32.65;14.85;;;7.00;99.90;;;;;;6169087;23;20015;-86
2021/12/12 09:44:30;;;;;;;32.70;15.52;;;7.00;99.90;;;;;;6169335;23;20184;-85
2021/12/12 09:47:27;;;;;;;34.63;16.17;;;7.20;99.90;;;;;;6143434;23;20043;-86
2021/12/12 09:53:23;;;;;;;36.47;16.30;;;7.00;99.90;;;;;;6169357;23;20794;-85
2021/12/12 09:56:24;;;;;;;36.85;16.30;;;7.10;99.90;;;;;;6168913;23;20244;-86
2021/12/12 09:59:03;;;;;;;38.38;16.20;;;7.10;99.90;;;;;;6145083;23;20012;-85
2021/12/12 10:01:46;;;;;;;40.70;17.38;;;7.20;99.90;;;;;;6144715;23;20001;-86
2021/12/12 10:04:29;;;;;;;45.42;19.10;;;7.20;99.90;;;;;;6144820;23;20013;-86
2021/12/12 10:07:10;;;;;;;45.78;18.08;;;7.20;99.90;;;;;;6169663;23;20243;-86
2021/12/12 10:09:37;;;;;;;47.42;18.83;;;7.20;99.90;;;;;;6144798;23;20008;-86
2021/12/12 10:12:15;;;;;;;45.97;19.50;;;7.30;99.90;;;;;;6169033;23;20184;-85
2021/12/12 10:14:58;;;;;;;47.33;19.35;;;7.30;99.90;;;;;;6144954;23;20035;-85
2021/12/12 10:17:44;;;;;;;45.13;19.40;;;7.30;99.90;;;;;;6144423;23;20001;-85
2021/12/12 10:20:18;;;;;;;53.45;20.77;;;7.30;99.90;;;;;;6144561;23;20000;-85
2021/12/12 10:23:02;;;;;;;46.78;19.52;;;8.60;99.90;;;;;;6144407;23;20011;-86
2021/12/12 10:25:58;;;;;;;53.95;21.75;;;7.80;99.90;;;;;;6144852;23;20016;-86
2021/12/12 10:28:52;;;;;;;57.83;21.20;;;7.40;99.90;;;;;;6144253;23;20005;-85
2021/12/12 10:31:49;;;;;;;53.47;21.63;;;7.50;99.90;;;;;;6168706;23;20001;-87
2021/12/12 10:34:28;;;;;;;50.33;19.42;;;7.50;99.90;;;;;;6195520;23;20276;-87
2021/12/12 10:37:18;;;;;;;50.20;20.00;;;7.50;99.90;;;;;;6144633;23;19997;-87
2021/12/12 10:39:50;;;;;;;54.00;21.92;;;7.60;99.90;;;;;;6169678;23;20128;-86
2021/12/12 10:42:28;;;;;;;54.22;21.35;;;7.60;99.90;;;;;;6168960;23;20068;-86
2021/12/12 10:44:59;;;;;;;53.03;20.13;;;7.60;99.90;;;;;;6169199;23;20051;-85
2021/12/12 10:48:23;;;;;;;57.42;20.88;;;8.00;99.90;;;;;;6168709;23;20303;-85
2021/12/12 10:51:05;;;;;;;52.88;21.08;;;7.70;99.90;;;;;;6079076;23;20102;-87
2021/12/12 10:53:34;;;;;;;64.13;21.58;;;6.10;99.90;;;;;;6079026;23;20006;-85
2021/12/12 10:56:38;;;;;;;56.20;21.17;;;7.80;99.90;;;;;;6108887;23;20259;-86
2021/12/12 10:59:28;;;;;;;57.22;21.83;;;7.90;99.90;;;;;;6143172;23;20008;-86
2021/12/12 11:01:59;;;;;;;53.83;21.05;;;7.90;99.90;;;;;;6143541;23;20005;-86
2021/12/12 11:05:21;;;;;;;53.60;21.55;;;7.90;99.90;;;;;;6143999;23;20012;-86
2021/12/12 11:08:01;;;;;;;;;;;7.90;99.90;;;;;;6079500;23;20238;-85
2021/12/12 11:10:33;;;;;;;52.70;20.15;;;7.80;99.90;;;;;;6081734;23;19937;-85
2021/12/12 11:13:09;;;;;;;47.05;19.65;;;7.90;99.90;;;;;;6121817;23;20005;-86
2021/12/12 11:15:48;;;;;;;51.67;19.85;;;8.00;99.90;;;;;;6145122;23;20056;-86
2021/12/12 11:18:22;;;;;;;48.33;19.02;;;8.00;99.90;;;;;;6144224;23;20001;-85
2021/12/12 11:20:56;;;;;;;52.72;19.30;;;8.10;99.90;;;;;;6170486;23;20063;-87
2021/12/12 11:23:32;;;;;;;53.03;19.65;;;8.10;99.90;;;;;;6145224;23;20005;-86
2021/12/12 11:26:34;;;;;;;53.72;20.10;;;8.10;99.90;;;;;;6146033;23;20013;-84
2021/12/12 11:29:07;;;;;;;55.60;20.08;;;8.20;99.90;;;;;;6131091;23;20247;-86
2021/12/12 11:31:42;;;;;;;;;;;8.20;99.90;;;;;;6197024;23;20001;-86
2021/12/12 11:34:12;;;;;;;41.78;18.33;;;8.30;99.90;;;;;;6145770;23;19901;-85
2021/12/12 11:37:07;;;;;;;47.17;19.23;;;8.30;99.90;;;;;;6170309;23;20240;-86
2021/12/12 11:39:39;;;;;;;50.13;19.00;;;8.40;99.90;;;;;;6146185;23;20004;-86
2021/12/12 11:42:20;;;;;;;43.47;17.65;;;8.40;99.90;;;;;;6170409;23;20009;-87
2021/12/12 11:45:39;;;;;;;;;;;;;;;;;;;;;
2021/12/12 11:52:55;;;;;;;45.78;17.75;;;8.60;99.90;;;;;;6122393;23;20156;-87
2021/12/12 11:56:50;;;;;;;48.42;18.83;;;8.60;99.90;;;;;;6066147;23;20030;-85
2021/12/12 12:16:35;;;;;;;42.35;17.65;;;8.70;99.90;;;;;;6224440;23;20294;-86
2021/12/12 12:24:10;;;;;;;34.15;14.77;;;8.80;99.90;;;;;;6017078;23;20068;-86
2021/12/12 12:27:31;;;;;;;;;;;;;;;;;;;;;
2021/12/12 12:31:08;;;;;;;37.92;14.27;;;8.80;99.90;;;;;;6079034;23;20006;-86
2021/12/12 12:41:48;;;;;;;37.55;14.95;;;;;;;;;;6196960;23;20044;-87
2021/12/12 12:45:35;;;;;;;;;;;;;;;;;;;;;
2021/12/12 12:48:33;;;;;;;37.05;14.45;;;8.80;99.90;;;;;;6189964;23;20183;-86
2021/12/12 12:56:08;;;;;;;34.28;14.20;;;8.80;99.90;;;;;;6206585;23;20043;-88
2021/12/12 12:59:39;;;;;;;31.02;13.82;;;8.80;99.90;;;;;;6200045;23;20152;-85
2021/12/12 13:02:23;;;;;;;35.22;14.35;;;8.80;99.90;;;;;;6172516;23;20038;-85
2021/12/12 13:05:57;;;;;;;31.45;13.77;;;8.80;99.90;;;;;;6199531;23;20008;-87
2021/12/12 13:09:22;;;;;;;;;;;;;;;;;;;;;
2021/12/12 13:12:45;;;;;;;35.13;14.05;;;8.80;99.90;;;;;;6196957;23;20004;-87
2021/12/12 13:16:14;;;;;;;33.70;14.25;;;;;;;;;;6203428;23;20047;-87
2021/12/12 13:19:03;;;;;;;30.17;12.88;;;;;;;;;;6159603;23;20224;-85
2021/12/12 13:22:21;;;;;;;37.45;14.80;;;8.90;99.90;;;;;;6114113;23;20160;-86
2021/12/12 13:25:25;;;;;;;30.08;13.25;;;8.80;99.90;;;;;;6112284;23;20014;-88
2021/12/12 13:36:02;;;;;;;34.63;14.10;;;8.90;99.90;;;;;;6011398;23;20015;-87
2021/12/12 13:43:09;;;;;;;32.03;14.02;;;8.90;99.90;;;;;;6092674;23;20307;-86
2021/12/12 13:46:12;;;;;;;36.10;14.90;;;9.00;99.90;;;;;;6101816;23;20056;-85
2021/12/12 14:01:08;;;;;;;;;;;;;;;;;;;;;
2021/12/12 14:04:52;;;;;;;;;;;;;;;;;;;;;
2021/12/12 14:07:58;;;;;;;34.15;13.60;;;9.10;99.90;;;;;;6074097;23;20061;-86
2021/12/12 14:11:39;;;;;;;43.00;15.50;;;8.90;99.90;;;;;;6053678;23;20097;-88
2021/12/12 14:14:59;;;;;;;36.00;13.45;;;9.10;99.90;;;;;;6015123;23;20617;-85
2021/12/12 14:22:25;;;;;;;28.25;11.80;;;9.10;99.90;;;;;;6019055;23;20011;-85
2021/12/12 14:29:45;;;;;;;30.38;11.93;;;9.10;99.90;;;;;;6012914;23;20313;-86
2021/12/12 14:47:15;;;;;;;38.92;13.65;;;9.10;99.90;;;;;;5904021;24;20017;-87
2021/12/12 14:54:43;;;;;;;;;;;;;;;;;;;;;
2021/12/12 14:58:08;;;;;;;27.38;11.60;;;9.10;99.90;;;;;;5824016;24;20062;-88
2021/12/12 15:01:13;;;;;;;32.55;12.18;;;9.10;99.90;;;;;;5854894;24;20202;-87
2021/12/12 15:13:29;;;;;;;;;;;;;;;;;;;;;
2021/12/12 15:21:43;;;;;;;;;;;;;;;;;;;;;
2021/12/12 15:25:30;;;;;;;34.72;12.55;;;9.10;99.90;;;;;;5969555;23;20085;-87
2021/12/12 15:33:04;;;;;;;;;;;;;;;;;;;;;
2021/12/12 15:36:32;;;;;;;27.90;11.63;;;9.10;99.90;;;;;;6196760;23;20023;-85
2021/12/12 15:40:29;;;;;;;;;;;;;;;;;;;;;
2021/12/12 15:47:49;;;;;;;;;;;;;;;;;;;;;
2021/12/12 15:51:34;;;;;;;;;;;;;;;;;;;;;
2021/12/12 15:54:41;;;;;;;26.40;11.40;;;9.10;99.90;;;;;;6124277;23;20006;-86
2021/12/12 15:58:12;;;;;;;25.23;10.35;;;9.00;99.90;;;;;;6074304;23;20253;-86
2021/12/12 16:04:33;;;;;;;32.38;11.18;;;9.10;99.90;;;;;;6043982;23;20061;-87
2021/12/12 16:07:09;;;;;;;35.08;12.07;;;9.00;99.90;;;;;;6055432;23;20009;-85
2021/12/12 16:09:41;;;;;;;28.90;11.07;;;10.10;99.90;;;;;;6057548;23;20003;-86
2021/12/12 16:12:25;;;;;;;26.20;10.90;;;9.00;99.90;;;;;;6057245;23;20167;-87
2021/12/12 16:14:58;;;;;;;28.13;10.65;;;7.70;99.90;;;;;;6057701;23;20181;-87
2021/12/12 16:17:34;;;;;;;25.70;10.45;;;9.00;99.90;;;;;;6057151;23;20014;-85
2021/12/12 16:20:18;;;;;;;29.55;10.90;;;9.00;99.90;;;;;;6057453;23;20021;-85
2021/12/12 16:22:48;;;;;;;24.27;10.18;;;9.00;99.90;;;;;;6175394;23;20005;-85
2021/12/12 16:25:17;;;;;;;40.50;12.00;;;9.00;99.90;;;;;;6175936;23;20132;-87
2021/12/12 16:27:46;;;;;;;44.60;12.32;;;9.00;99.90;;;;;;6150250;23;20163;-86
2021/12/12 16:30:16;;;;;;;31.83;11.52;;;9.00;99.90;;;;;;6200637;23;20069;-87
2021/12/12 16:32:47;;;;;;;24.55;10.75;;;9.10;99.90;;;;;;6175070;23;20032;-85
2021/12/12 16:35:17;;;;;;;32.28;12.10;;;9.10;99.90;;;;;;6175111;23;20262;-85
2021/12/12 16:37:49;;;;;;;29.90;11.43;;;9.00;99.90;;;;;;6175144;23;20282;-86
2021/12/12 16:40:28;;;;;;;32.95;11.77;;;9.10;99.90;;;;;;6174737;23;20008;-86
2021/12/12 16:43:48;;;;;;;;;;;;;;;;;;;;;
2021/12/12 16:54:47;;;;;;;;;;;;;;;;;;;;;
2021/12/12 16:58:04;;;;;;;24.50;10.82;;;8.70;99.90;;;;;;6021142;23;20082;-86
2021/12/12 17:01:46;;;;;;;;;;;;;;;;;;;;;
2021/12/12 17:15:33;;;;;;;31.60;12.60;;;9.10;99.90;;;;;;6121673;23;20013;-86
2021/12/12 17:22:44;;;;;;;28.42;11.45;;;9.10;99.90;;;;;;6124860;23;20032;-86
2021/12/12 17:40:53;;;;;;;30.42;11.82;;;9.20;99.90;;;;;;6207754;23;20004;-87
2021/12/12 17:44:20;;;;;;;;;;;;;;;;;;;;;
2021/12/12 17:51:29;;;;;;;;;;;;;;;;;;;;;
2021/12/12 17:54:28;;;;;;;29.73;10.25;;;9.10;99.90;;;;;;6199326;23;20032;-87
2021/12/12 17:57:07;;;;;;;27.30;9.60;;;9.10;99.90;;;;;;6146647;23;20001;-86
2021/12/12 18:00:11;;;;;;;31.23;10.13;;;9.10;99.90;;;;;;6199433;23;19997;-86